sensor_id;sensor_type;location;lat;lon;timestamp;temperature;humidity
32470;DHT22;18925;48.356;10.864;2022-12-29T00:00:24;5.50;99.90
32470;DHT22;18925;48.356;10.864;2022-12-29T00:00:55;5.50;99.90
32470;DHT22;18925;48.356;10.864;2022-12-29T00:01:25;5.50;99.90
32470;DHT22;18925;48.356;10.864;2022-12-29T00:01:56;5.50;99.90
32470;DHT22;18925;48.356;10.864;2022-12-29T00:02:26;5.50;99.90
32470;DHT22;18925;48.356;10.864;2022-12-29T00:02:57;5.50;99.90
32470;DHT22;18925;48.356;10.864;2022-12-29T00:03:28;5.50;99.90
32470;DHT22;18925;48.356;10.864;2022-12-29T00:03:58;5.50;99.90
32470;DHT22;18925;48.356;10.864;2022-12-29T00:04:29;5.50;99.90
32470;DHT22;18925;48.356;10.864;2022-12-29T00:05:00;5.50;99.90
32470;DHT22;18925;48.356;10.864;2022-12-29T00:05:30;5.50;99.90
32470;DHT22;18925;48.356;10.864;2022-12-29T00:06:01;5.50;99.90
32470;DHT22;18925;48.356;10.864;2022-12-29T00:06:33;5.50;99.90
32470;DHT22;18925;48.356;10.864;2022-12-29T00:07:04;5.50;99.90
32470;DHT22;18925;48.356;10.864;2022-12-29T00:07:35;5.50;99.90
32470;DHT22;18925;48.356;10.864;2022-12-29T00:08:06;5.50;99.90
32470;DHT22;18925;48.356;10.864;2022-12-29T00:08:36;5.50;99.90
32470;DHT22;18925;48.356;10.864;2022-12-29T00:09:13;5.50;99.90
32470;DHT22;18925;48.356;10.864;2022-12-29T00:09:44;5.50;99.90
32470;DHT22;18925;48.356;10.864;2022-12-29T00:10:14;5.50;99.90
32470;DHT22;18925;48.356;10.864;2022-12-29T00:10:45;5.50;99.90
32470;DHT22;18925;48.356;10.864;2022-12-29T00:11:20;5.50;99.90
32470;DHT22;18925;48.356;10.864;2022-12-29T00:11:51;5.50;99.90
32470;DHT22;18925;48.356;10.864;2022-12-29T00:12:22;5.50;99.90
32470;DHT22;18925;48.356;10.864;2022-12-29T00:12:53;5.50;99.90
32470;DHT22;18925;48.356;10.864;2022-12-29T00:13:42;5.50;99.90
32470;DHT22;18925;48.356;10.864;2022-12-29T00:14:32;5.50;99.90
32470;DHT22;18925;48.356;10.864;2022-12-29T00:15:21;5.50;99.90
32470;DHT22;18925;48.356;10.864;2022-12-29T00:16:07;5.50;99.90
32470;DHT22;18925;48.356;10.864;2022-12-29T00:16:43;5.50;99.90
32470;DHT22;18925;48.356;10.864;2022-12-29T00:17:14;5.50;99.90
32470;DHT22;18925;48.356;10.864;2022-12-29T00:17:45;5.50;99.90
32470;DHT22;18925;48.356;10.864;2022-12-29T00:18:15;5.40;99.90
32470;DHT22;18925;48.356;10.864;2022-12-29T00:18:46;5.50;99.90
32470;DHT22;18925;48.356;10.864;2022-12-29T00:19:17;5.50;99.90
32470;DHT22;18925;48.356;10.864;2022-12-29T00:20:06;5.50;99.90
32470;DHT22;18925;48.356;10.864;2022-12-29T00:20:56;5.50;99.90
32470;DHT22;18925;48.356;10.864;2022-12-29T00:21:45;5.50;99.90
32470;DHT22;18925;48.356;10.864;2022-12-29T00:22:34;5.40;99.90
32470;DHT22;18925;48.356;10.864;2022-12-29T00:23:24;5.40;99.90
32470;DHT22;18925;48.356;10.864;2022-12-29T00:24:20;5.40;99.90
32470;DHT22;18925;48.356;10.864;2022-12-29T00:24:56;5.40;99.90
32470;DHT22;18925;48.356;10.864;2022-12-29T00:25:39;5.40;99.90
32470;DHT22;18925;48.356;10.864;2022-12-29T00:26:28;5.40;99.90
32470;DHT22;18925;48.356;10.864;2022-12-29T00:27:17;5.40;99.90
32470;DHT22;18925;48.356;10.864;2022-12-29T00:28:08;5.40;99.90
32470;DHT22;18925;48.356;10.864;2022-12-29T00:28:58;5.40;99.90
32470;DHT22;18925;48.356;10.864;2022-12-29T00:29:51;5.30;99.90
32470;DHT22;18925;48.356;10.864;2022-12-29T00:30:43;5.30;99.90
32470;DHT22;18925;48.356;10.864;2022-12-29T00:31:32;5.30;99.90
32470;DHT22;18925;48.356;10.864;2022-12-29T00:32:21;5.30;99.90
32470;DHT22;18925;48.356;10.864;2022-12-29T00:33:12;5.30;99.90
32470;DHT22;18925;48.356;10.864;2022-12-29T00:34:01;5.30;99.90
32470;DHT22;18925;48.356;10.864;2022-12-29T00:34:50;5.30;99.90
32470;DHT22;18925;48.356;10.864;2022-12-29T00:35:44;5.30;99.90
32470;DHT22;18925;48.356;10.864;2022-12-29T00:36:49;5.30;99.90
32470;DHT22;18925;48.356;10.864;2022-12-29T00:37:20;5.30;99.90
32470;DHT22;18925;48.356;10.864;2022-12-29T00:38:12;5.30;99.90
32470;DHT22;18925;48.356;10.864;2022-12-29T00:39:09;5.30;99.90
32470;DHT22;18925;48.356;10.864;2022-12-29T00:39:59;5.20;99.90
32470;DHT22;18925;48.356;10.864;2022-12-29T00:40:48;5.30;99.90
32470;DHT22;18925;48.356;10.864;2022-12-29T00:41:37;5.20;99.90
32470;DHT22;18925;48.356;10.864;2022-12-29T00:42:26;5.20;99.90
32470;DHT22;18925;48.356;10.864;2022-12-29T00:43:16;5.20;99.90
32470;DHT22;18925;48.356;10.864;2022-12-29T00:44:06;5.20;99.90
32470;DHT22;18925;48.356;10.864;2022-12-29T00:44:36;5.20;99.90
32470;DHT22;18925;48.356;10.864;2022-12-29T00:45:07;5.20;99.90
32470;DHT22;18925;48.356;10.864;2022-12-29T00:45:40;5.20;99.90
32470;DHT22;18925;48.356;10.864;2022-12-29T00:46:11;5.20;99.90
32470;DHT22;18925;48.356;10.864;2022-12-29T00:46:42;5.20;99.90
32470;DHT22;18925;48.356;10.864;2022-12-29T00:47:13;5.10;99.90
32470;DHT22;18925;48.356;10.864;2022-12-29T00:47:44;5.20;99.90
32470;DHT22;18925;48.356;10.864;2022-12-29T00:48:14;5.10;99.90
32470;DHT22;18925;48.356;10.864;2022-12-29T00:48:45;5.10;99.90
32470;DHT22;18925;48.356;10.864;2022-12-29T00:49:34;5.10;99.90
32470;DHT22;18925;48.356;10.864;2022-12-29T00:50:05;5.10;99.90
32470;DHT22;18925;48.356;10.864;2022-12-29T00:50:35;5.10;99.90
32470;DHT22;18925;48.356;10.864;2022-12-29T00:51:07;5.10;99.90
32470;DHT22;18925;48.356;10.864;2022-12-29T00:51:38;5.10;99.90
32470;DHT22;18925;48.356;10.864;2022-12-29T00:52:11;5.10;99.90
32470;DHT22;18925;48.356;10.864;2022-12-29T00:52:42;5.10;99.90
32470;DHT22;18925;48.356;10.864;2022-12-29T00:53:12;5.10;99.90
32470;DHT22;18925;48.356;10.864;2022-12-29T00:53:43;5.10;99.90
32470;DHT22;18925;48.356;10.864;2022-12-29T00:54:14;5.10;99.90
32470;DHT22;18925;48.356;10.864;2022-12-29T00:54:45;5.10;99.90
32470;DHT22;18925;48.356;10.864;2022-12-29T00:55:16;5.10;99.90
32470;DHT22;18925;48.356;10.864;2022-12-29T00:55:46;5.10;99.90
32470;DHT22;18925;48.356;10.864;2022-12-29T00:56:17;5.00;99.90
32470;DHT22;18925;48.356;10.864;2022-12-29T00:56:48;5.10;99.90
32470;DHT22;18925;48.356;10.864;2022-12-29T00:57:19;5.10;99.90
32470;DHT22;18925;48.356;10.864;2022-12-29T00:57:50;5.10;99.90
32470;DHT22;18925;48.356;10.864;2022-12-29T00:58:20;5.10;99.90
32470;DHT22;18925;48.356;10.864;2022-12-29T00:58:51;5.10;99.90
32470;DHT22;18925;48.356;10.864;2022-12-29T00:59:22;5.10;99.90
32470;DHT22;18925;48.356;10.864;2022-12-29T00:59:54;5.10;99.90
32470;DHT22;18925;48.356;10.864;2022-12-29T01:00:25;5.10;99.90
32470;DHT22;18925;48.356;10.864;2022-12-29T01:01:08;5.10;99.90
32470;DHT22;18925;48.356;10.864;2022-12-29T01:01:39;5.10;99.90
32470;DHT22;18925;48.356;10.864;2022-12-29T01:02:10;5.10;99.90
32470;DHT22;18925;48.356;10.864;2022-12-29T01:02:41;5.10;99.90
32470;DHT22;18925;48.356;10.864;2022-12-29T01:03:11;5.10;99.90
32470;DHT22;18925;48.356;10.864;2022-12-29T01:03:42;5.10;99.90
32470;DHT22;18925;48.356;10.864;2022-12-29T01:04:13;5.10;99.90
32470;DHT22;18925;48.356;10.864;2022-12-29T01:04:43;5.10;99.90
32470;DHT22;18925;48.356;10.864;2022-12-29T01:05:14;5.10;99.90
32470;DHT22;18925;48.356;10.864;2022-12-29T01:05:45;5.10;99.90
32470;DHT22;18925;48.356;10.864;2022-12-29T01:06:15;5.10;99.90
32470;DHT22;18925;48.356;10.864;2022-12-29T01:06:46;5.10;99.90
32470;DHT22;18925;48.356;10.864;2022-12-29T01:07:17;5.10;99.90
32470;DHT22;18925;48.356;10.864;2022-12-29T01:07:47;5.10;99.90
32470;DHT22;18925;48.356;10.864;2022-12-29T01:08:18;5.10;99.90
32470;DHT22;18925;48.356;10.864;2022-12-29T01:08:48;5.10;99.90
32470;DHT22;18925;48.356;10.864;2022-12-29T01:09:42;5.10;99.90
32470;DHT22;18925;48.356;10.864;2022-12-29T01:10:31;5.10;99.90
32470;DHT22;18925;48.356;10.864;2022-12-29T01:11:10;5.10;99.90
32470;DHT22;18925;48.356;10.864;2022-12-29T01:11:41;5.10;99.90
32470;DHT22;18925;48.356;10.864;2022-12-29T01:12:12;5.10;99.90
32470;DHT22;18925;48.356;10.864;2022-12-29T01:12:42;5.10;99.90
32470;DHT22;18925;48.356;10.864;2022-12-29T01:13:15;5.10;99.90
32470;DHT22;18925;48.356;10.864;2022-12-29T01:13:45;5.10;99.90
32470;DHT22;18925;48.356;10.864;2022-12-29T01:14:16;5.10;99.90
32470;DHT22;18925;48.356;10.864;2022-12-29T01:14:47;5.10;99.90
32470;DHT22;18925;48.356;10.864;2022-12-29T01:15:18;5.00;99.90
32470;DHT22;18925;48.356;10.864;2022-12-29T01:15:52;5.00;99.90
32470;DHT22;18925;48.356;10.864;2022-12-29T01:16:23;5.00;99.90
32470;DHT22;18925;48.356;10.864;2022-12-29T01:16:57;5.00;99.90
32470;DHT22;18925;48.356;10.864;2022-12-29T01:17:27;5.00;99.90
32470;DHT22;18925;48.356;10.864;2022-12-29T01:17:58;5.00;99.90
32470;DHT22;18925;48.356;10.864;2022-12-29T01:18:29;5.00;99.90
32470;DHT22;18925;48.356;10.864;2022-12-29T01:19:00;5.00;99.90
32470;DHT22;18925;48.356;10.864;2022-12-29T01:19:30;5.00;99.90
32470;DHT22;18925;48.356;10.864;2022-12-29T01:20:02;4.90;99.90
32470;DHT22;18925;48.356;10.864;2022-12-29T01:20:33;5.00;99.90
32470;DHT22;18925;48.356;10.864;2022-12-29T01:21:05;5.00;99.90
32470;DHT22;18925;48.356;10.864;2022-12-29T01:21:36;5.00;99.90
32470;DHT22;18925;48.356;10.864;2022-12-29T01:22:06;5.00;99.90
32470;DHT22;18925;48.356;10.864;2022-12-29T01:22:37;5.00;99.90
32470;DHT22;18925;48.356;10.864;2022-12-29T01:23:08;5.00;99.90
32470;DHT22;18925;48.356;10.864;2022-12-29T01:23:39;5.00;99.90
32470;DHT22;18925;48.356;10.864;2022-12-29T01:24:10;5.00;99.90
32470;DHT22;18925;48.356;10.864;2022-12-29T01:24:40;5.00;99.90
32470;DHT22;18925;48.356;10.864;2022-12-29T01:25:11;5.00;99.90
32470;DHT22;18925;48.356;10.864;2022-12-29T01:25:41;5.00;99.90
32470;DHT22;18925;48.356;10.864;2022-12-29T01:26:14;5.00;99.90
32470;DHT22;18925;48.356;10.864;2022-12-29T01:26:45;5.00;99.90
32470;DHT22;18925;48.356;10.864;2022-12-29T01:27:16;5.00;99.90
32470;DHT22;18925;48.356;10.864;2022-12-29T01:27:47;5.00;99.90
32470;DHT22;18925;48.356;10.864;2022-12-29T01:28:17;5.00;99.90
32470;DHT22;18925;48.356;10.864;2022-12-29T01:28:48;5.00;99.90
32470;DHT22;18925;48.356;10.864;2022-12-29T01:29:18;5.00;99.90
32470;DHT22;18925;48.356;10.864;2022-12-29T01:29:49;5.00;99.90
32470;DHT22;18925;48.356;10.864;2022-12-29T01:30:20;5.00;99.90
32470;DHT22;18925;48.356;10.864;2022-12-29T01:30:50;5.00;99.90
32470;DHT22;18925;48.356;10.864;2022-12-29T01:31:21;5.00;99.90
32470;DHT22;18925;48.356;10.864;2022-12-29T01:31:52;5.00;99.90
32470;DHT22;18925;48.356;10.864;2022-12-29T01:32:23;5.00;99.90
32470;DHT22;18925;48.356;10.864;2022-12-29T01:32:53;5.00;99.90
32470;DHT22;18925;48.356;10.864;2022-12-29T01:33:24;5.00;99.90
32470;DHT22;18925;48.356;10.864;2022-12-29T01:33:54;5.00;99.90
32470;DHT22;18925;48.356;10.864;2022-12-29T01:34:25;5.00;99.90
32470;DHT22;18925;48.356;10.864;2022-12-29T01:34:56;5.00;99.90
32470;DHT22;18925;48.356;10.864;2022-12-29T01:35:27;5.00;99.90
32470;DHT22;18925;48.356;10.864;2022-12-29T01:36:01;5.00;99.90
32470;DHT22;18925;48.356;10.864;2022-12-29T01:36:32;5.00;99.90
32470;DHT22;18925;48.356;10.864;2022-12-29T01:37:03;5.00;99.90
32470;DHT22;18925;48.356;10.864;2022-12-29T01:37:33;5.00;99.90
32470;DHT22;18925;48.356;10.864;2022-12-29T01:38:04;5.00;99.90
32470;DHT22;18925;48.356;10.864;2022-12-29T01:38:36;5.00;99.90
32470;DHT22;18925;48.356;10.864;2022-12-29T01:39:07;5.00;99.90
32470;DHT22;18925;48.356;10.864;2022-12-29T01:39:37;5.00;99.90
32470;DHT22;18925;48.356;10.864;2022-12-29T01:40:08;5.00;99.90
32470;DHT22;18925;48.356;10.864;2022-12-29T01:40:47;5.10;99.90
32470;DHT22;18925;48.356;10.864;2022-12-29T01:41:18;5.00;99.90
32470;DHT22;18925;48.356;10.864;2022-12-29T01:41:48;5.10;99.90
32470;DHT22;18925;48.356;10.864;2022-12-29T01:42:23;5.10;99.90
32470;DHT22;18925;48.356;10.864;2022-12-29T01:42:54;5.10;99.90
32470;DHT22;18925;48.356;10.864;2022-12-29T01:44:49;5.10;99.90
32470;DHT22;18925;48.356;10.864;2022-12-29T01:45:20;5.10;99.90
32470;DHT22;18925;48.356;10.864;2022-12-29T01:45:51;5.10;99.90
32470;DHT22;18925;48.356;10.864;2022-12-29T01:47:07;5.10;99.90
32470;DHT22;18925;48.356;10.864;2022-12-29T01:47:47;5.10;99.90
32470;DHT22;18925;48.356;10.864;2022-12-29T01:48:19;5.10;99.90
32470;DHT22;18925;48.356;10.864;2022-12-29T01:48:54;5.10;99.90
32470;DHT22;18925;48.356;10.864;2022-12-29T01:49:27;5.10;99.90
32470;DHT22;18925;48.356;10.864;2022-12-29T01:50:36;5.10;99.90
32470;DHT22;18925;48.356;10.864;2022-12-29T01:50:59;5.10;99.90
32470;DHT22;18925;48.356;10.864;2022-12-29T01:51:31;5.20;99.90
32470;DHT22;18925;48.356;10.864;2022-12-29T01:52:06;5.10;99.90
32470;DHT22;18925;48.356;10.864;2022-12-29T01:52:41;5.20;99.90
32470;DHT22;18925;48.356;10.864;2022-12-29T01:53:26;5.10;99.90
32470;DHT22;18925;48.356;10.864;2022-12-29T01:54:00;5.20;99.90
32470;DHT22;18925;48.356;10.864;2022-12-29T01:54:46;5.20;99.90
32470;DHT22;18925;48.356;10.864;2022-12-29T01:55:19;5.20;99.90
32470;DHT22;18925;48.356;10.864;2022-12-29T01:55:53;5.20;99.90
32470;DHT22;18925;48.356;10.864;2022-12-29T01:56:25;5.20;99.90
32470;DHT22;18925;48.356;10.864;2022-12-29T01:57:01;5.20;99.90
32470;DHT22;18925;48.356;10.864;2022-12-29T01:57:36;5.10;99.90
32470;DHT22;18925;48.356;10.864;2022-12-29T01:58:07;5.20;99.90
32470;DHT22;18925;48.356;10.864;2022-12-29T01:58:41;5.20;99.90
32470;DHT22;18925;48.356;10.864;2022-12-29T01:59:18;5.10;99.90
32470;DHT22;18925;48.356;10.864;2022-12-29T01:59:53;5.20;99.90
32470;DHT22;18925;48.356;10.864;2022-12-29T02:00:26;5.10;99.90
32470;DHT22;18925;48.356;10.864;2022-12-29T02:00:57;5.10;99.90
32470;DHT22;18925;48.356;10.864;2022-12-29T02:01:28;5.20;99.90
32470;DHT22;18925;48.356;10.864;2022-12-29T02:01:59;5.20;99.90
32470;DHT22;18925;48.356;10.864;2022-12-29T02:02:31;5.20;99.90
32470;DHT22;18925;48.356;10.864;2022-12-29T02:03:02;5.20;99.90
32470;DHT22;18925;48.356;10.864;2022-12-29T02:03:35;5.20;99.90
32470;DHT22;18925;48.356;10.864;2022-12-29T02:04:07;5.10;99.90
32470;DHT22;18925;48.356;10.864;2022-12-29T02:04:41;5.10;99.90
32470;DHT22;18925;48.356;10.864;2022-12-29T02:05:33;5.20;99.90
32470;DHT22;18925;48.356;10.864;2022-12-29T02:06:16;5.10;99.90
32470;DHT22;18925;48.356;10.864;2022-12-29T02:06:53;5.20;99.90
32470;DHT22;18925;48.356;10.864;2022-12-29T02:07:26;5.20;99.90
32470;DHT22;18925;48.356;10.864;2022-12-29T02:07:59;5.20;99.90
32470;DHT22;18925;48.356;10.864;2022-12-29T02:08:29;5.10;99.90
32470;DHT22;18925;48.356;10.864;2022-12-29T02:09:00;5.20;99.90
32470;DHT22;18925;48.356;10.864;2022-12-29T02:09:31;5.20;99.90
32470;DHT22;18925;48.356;10.864;2022-12-29T02:10:02;5.20;99.90
32470;DHT22;18925;48.356;10.864;2022-12-29T02:10:34;5.20;99.90
32470;DHT22;18925;48.356;10.864;2022-12-29T02:11:06;5.20;99.90
32470;DHT22;18925;48.356;10.864;2022-12-29T02:11:38;5.20;99.90
32470;DHT22;18925;48.356;10.864;2022-12-29T02:12:09;5.20;99.90
32470;DHT22;18925;48.356;10.864;2022-12-29T02:12:40;5.20;99.90
32470;DHT22;18925;48.356;10.864;2022-12-29T02:13:11;5.20;99.90
32470;DHT22;18925;48.356;10.864;2022-12-29T02:13:41;5.20;99.90
32470;DHT22;18925;48.356;10.864;2022-12-29T02:14:13;5.20;99.90
32470;DHT22;18925;48.356;10.864;2022-12-29T02:14:44;5.30;99.90
32470;DHT22;18925;48.356;10.864;2022-12-29T02:15:16;5.20;99.90
32470;DHT22;18925;48.356;10.864;2022-12-29T02:16:09;5.20;99.90
32470;DHT22;18925;48.356;10.864;2022-12-29T02:17:13;5.20;99.90
32470;DHT22;18925;48.356;10.864;2022-12-29T02:18:55;5.30;99.90
32470;DHT22;18925;48.356;10.864;2022-12-29T02:21:51;5.30;99.90
32470;DHT22;18925;48.356;10.864;2022-12-29T02:23:00;5.30;99.90
32470;DHT22;18925;48.356;10.864;2022-12-29T02:24:04;5.30;99.90
32470;DHT22;18925;48.356;10.864;2022-12-29T02:25:26;5.30;99.90
32470;DHT22;18925;48.356;10.864;2022-12-29T02:27:18;5.30;99.90
32470;DHT22;18925;48.356;10.864;2022-12-29T02:31:27;5.30;99.90
32470;DHT22;18925;48.356;10.864;2022-12-29T02:32:05;5.30;99.90
32470;DHT22;18925;48.356;10.864;2022-12-29T02:34:40;5.40;99.90
32470;DHT22;18925;48.356;10.864;2022-12-29T02:36:23;5.40;99.90
32470;DHT22;18925;48.356;10.864;2022-12-29T02:37:08;5.40;99.90
32470;DHT22;18925;48.356;10.864;2022-12-29T02:38:09;5.40;99.90
32470;DHT22;18925;48.356;10.864;2022-12-29T02:39:00;5.50;99.90
32470;DHT22;18925;48.356;10.864;2022-12-29T02:39:38;5.50;99.90
32470;DHT22;18925;48.356;10.864;2022-12-29T02:40:24;5.50;99.90
32470;DHT22;18925;48.356;10.864;2022-12-29T02:42:11;5.50;99.90
32470;DHT22;18925;48.356;10.864;2022-12-29T02:43:04;5.50;99.90
32470;DHT22;18925;48.356;10.864;2022-12-29T02:43:47;5.50;99.90
32470;DHT22;18925;48.356;10.864;2022-12-29T02:44:31;5.60;99.90
32470;DHT22;18925;48.356;10.864;2022-12-29T02:45:36;5.60;99.90
32470;DHT22;18925;48.356;10.864;2022-12-29T02:46:20;5.50;99.90
32470;DHT22;18925;48.356;10.864;2022-12-29T02:46:55;5.60;99.90
32470;DHT22;18925;48.356;10.864;2022-12-29T02:47:53;5.60;99.90
32470;DHT22;18925;48.356;10.864;2022-12-29T02:48:43;5.60;99.90
32470;DHT22;18925;48.356;10.864;2022-12-29T02:49:42;5.60;99.90
32470;DHT22;18925;48.356;10.864;2022-12-29T02:50:29;5.60;99.90
32470;DHT22;18925;48.356;10.864;2022-12-29T02:51:27;5.60;99.90
32470;DHT22;18925;48.356;10.864;2022-12-29T02:52:15;5.60;99.90
32470;DHT22;18925;48.356;10.864;2022-12-29T02:52:51;5.70;99.90
32470;DHT22;18925;48.356;10.864;2022-12-29T02:53:23;5.60;99.90
32470;DHT22;18925;48.356;10.864;2022-12-29T02:54:17;5.70;99.90
32470;DHT22;18925;48.356;10.864;2022-12-29T02:55:07;5.70;99.90
32470;DHT22;18925;48.356;10.864;2022-12-29T02:55:37;5.70;99.90
32470;DHT22;18925;48.356;10.864;2022-12-29T02:56:08;5.70;99.90
32470;DHT22;18925;48.356;10.864;2022-12-29T02:56:39;5.70;99.90
32470;DHT22;18925;48.356;10.864;2022-12-29T02:57:26;5.70;99.90
32470;DHT22;18925;48.356;10.864;2022-12-29T02:58:47;5.70;99.90
32470;DHT22;18925;48.356;10.864;2022-12-29T02:59:18;5.70;99.90
32470;DHT22;18925;48.356;10.864;2022-12-29T03:00:15;5.70;99.90
32470;DHT22;18925;48.356;10.864;2022-12-29T03:02:02;5.70;99.90
32470;DHT22;18925;48.356;10.864;2022-12-29T03:04:31;5.70;99.90
32470;DHT22;18925;48.356;10.864;2022-12-29T03:06:12;5.70;99.90
32470;DHT22;18925;48.356;10.864;2022-12-29T03:10:35;5.70;99.90
32470;DHT22;18925;48.356;10.864;2022-12-29T03:11:13;5.60;99.90
32470;DHT22;18925;48.356;10.864;2022-12-29T03:12:41;5.60;99.90
32470;DHT22;18925;48.356;10.864;2022-12-29T03:13:47;5.70;99.90
32470;DHT22;18925;48.356;10.864;2022-12-29T03:15:54;5.70;99.90
32470;DHT22;18925;48.356;10.864;2022-12-29T03:16:47;5.70;99.90
32470;DHT22;18925;48.356;10.864;2022-12-29T03:17:27;5.70;99.90
32470;DHT22;18925;48.356;10.864;2022-12-29T03:18:21;5.70;99.90
32470;DHT22;18925;48.356;10.864;2022-12-29T03:19:58;5.70;99.90
32470;DHT22;18925;48.356;10.864;2022-12-29T03:20:49;5.70;99.90
32470;DHT22;18925;48.356;10.864;2022-12-29T03:21:32;5.70;99.90
32470;DHT22;18925;48.356;10.864;2022-12-29T03:22:26;5.60;99.90
32470;DHT22;18925;48.356;10.864;2022-12-29T03:23:00;5.70;99.90
32470;DHT22;18925;48.356;10.864;2022-12-29T03:23:32;5.70;99.90
32470;DHT22;18925;48.356;10.864;2022-12-29T03:24:05;5.60;99.90
32470;DHT22;18925;48.356;10.864;2022-12-29T03:24:40;5.60;99.90
32470;DHT22;18925;48.356;10.864;2022-12-29T03:25:35;5.70;99.90
32470;DHT22;18925;48.356;10.864;2022-12-29T03:26:10;5.70;99.90
32470;DHT22;18925;48.356;10.864;2022-12-29T03:26:42;5.60;99.90
32470;DHT22;18925;48.356;10.864;2022-12-29T03:27:18;5.70;99.90
32470;DHT22;18925;48.356;10.864;2022-12-29T03:27:58;5.70;99.90
32470;DHT22;18925;48.356;10.864;2022-12-29T03:28:36;5.70;99.90
32470;DHT22;18925;48.356;10.864;2022-12-29T03:29:08;5.70;99.90
32470;DHT22;18925;48.356;10.864;2022-12-29T03:29:45;5.70;99.90
32470;DHT22;18925;48.356;10.864;2022-12-29T03:30:16;5.70;99.90
32470;DHT22;18925;48.356;10.864;2022-12-29T03:30:48;5.70;99.90
32470;DHT22;18925;48.356;10.864;2022-12-29T03:31:20;5.70;99.90
32470;DHT22;18925;48.356;10.864;2022-12-29T03:31:53;5.70;99.90
32470;DHT22;18925;48.356;10.864;2022-12-29T03:32:28;5.70;99.90
32470;DHT22;18925;48.356;10.864;2022-12-29T03:33:03;5.70;99.90
32470;DHT22;18925;48.356;10.864;2022-12-29T03:33:35;5.70;99.90
32470;DHT22;18925;48.356;10.864;2022-12-29T03:34:09;5.70;99.90
32470;DHT22;18925;48.356;10.864;2022-12-29T03:34:40;5.70;99.90
32470;DHT22;18925;48.356;10.864;2022-12-29T03:35:13;5.70;99.90
32470;DHT22;18925;48.356;10.864;2022-12-29T03:35:46;5.70;99.90
32470;DHT22;18925;48.356;10.864;2022-12-29T03:36:26;5.70;99.90
32470;DHT22;18925;48.356;10.864;2022-12-29T03:37:10;5.70;99.90
32470;DHT22;18925;48.356;10.864;2022-12-29T03:39:12;5.80;99.90
32470;DHT22;18925;48.356;10.864;2022-12-29T03:39:44;5.80;99.90
32470;DHT22;18925;48.356;10.864;2022-12-29T03:40:15;5.80;99.90
32470;DHT22;18925;48.356;10.864;2022-12-29T03:40:49;5.80;99.90
32470;DHT22;18925;48.356;10.864;2022-12-29T03:41:25;5.80;99.90
32470;DHT22;18925;48.356;10.864;2022-12-29T03:42:10;5.90;99.90
32470;DHT22;18925;48.356;10.864;2022-12-29T03:42:43;5.90;99.90
32470;DHT22;18925;48.356;10.864;2022-12-29T03:43:14;5.90;99.90
32470;DHT22;18925;48.356;10.864;2022-12-29T03:43:45;5.90;99.90
32470;DHT22;18925;48.356;10.864;2022-12-29T03:44:16;5.90;99.90
32470;DHT22;18925;48.356;10.864;2022-12-29T03:44:47;5.90;99.90
32470;DHT22;18925;48.356;10.864;2022-12-29T03:45:18;5.80;99.90
32470;DHT22;18925;48.356;10.864;2022-12-29T03:45:49;5.90;99.90
32470;DHT22;18925;48.356;10.864;2022-12-29T03:46:20;5.90;99.90
32470;DHT22;18925;48.356;10.864;2022-12-29T03:46:50;5.90;99.90
32470;DHT22;18925;48.356;10.864;2022-12-29T03:47:21;5.90;99.90
32470;DHT22;18925;48.356;10.864;2022-12-29T03:47:53;5.90;99.90
32470;DHT22;18925;48.356;10.864;2022-12-29T03:48:24;5.90;99.90
32470;DHT22;18925;48.356;10.864;2022-12-29T03:48:54;5.90;99.90
32470;DHT22;18925;48.356;10.864;2022-12-29T03:49:25;5.90;99.90
32470;DHT22;18925;48.356;10.864;2022-12-29T03:49:55;6.00;99.90
32470;DHT22;18925;48.356;10.864;2022-12-29T03:50:26;5.90;99.90
32470;DHT22;18925;48.356;10.864;2022-12-29T03:50:57;5.90;99.90
32470;DHT22;18925;48.356;10.864;2022-12-29T03:51:27;5.90;99.90
32470;DHT22;18925;48.356;10.864;2022-12-29T03:51:58;6.00;99.90
32470;DHT22;18925;48.356;10.864;2022-12-29T03:52:28;6.00;99.90
32470;DHT22;18925;48.356;10.864;2022-12-29T03:52:59;6.00;99.90
32470;DHT22;18925;48.356;10.864;2022-12-29T03:53:30;6.00;99.90
32470;DHT22;18925;48.356;10.864;2022-12-29T03:54:00;6.00;99.90
32470;DHT22;18925;48.356;10.864;2022-12-29T03:54:32;6.00;99.90
32470;DHT22;18925;48.356;10.864;2022-12-29T03:55:02;6.00;99.90
32470;DHT22;18925;48.356;10.864;2022-12-29T03:55:33;6.00;99.90
32470;DHT22;18925;48.356;10.864;2022-12-29T03:56:04;6.00;99.90
32470;DHT22;18925;48.356;10.864;2022-12-29T03:56:35;6.00;99.90
32470;DHT22;18925;48.356;10.864;2022-12-29T03:57:05;6.00;99.90
32470;DHT22;18925;48.356;10.864;2022-12-29T03:57:36;6.00;99.90
32470;DHT22;18925;48.356;10.864;2022-12-29T03:58:06;6.00;99.90
32470;DHT22;18925;48.356;10.864;2022-12-29T03:58:37;6.10;99.90
32470;DHT22;18925;48.356;10.864;2022-12-29T03:59:08;6.10;99.90
32470;DHT22;18925;48.356;10.864;2022-12-29T03:59:39;6.10;99.90
32470;DHT22;18925;48.356;10.864;2022-12-29T04:00:10;6.10;99.90
32470;DHT22;18925;48.356;10.864;2022-12-29T04:00:41;6.10;99.90
32470;DHT22;18925;48.356;10.864;2022-12-29T04:01:11;6.10;99.90
32470;DHT22;18925;48.356;10.864;2022-12-29T04:01:42;6.10;99.90
32470;DHT22;18925;48.356;10.864;2022-12-29T04:02:13;6.10;99.90
32470;DHT22;18925;48.356;10.864;2022-12-29T04:02:43;6.10;99.90
32470;DHT22;18925;48.356;10.864;2022-12-29T04:03:14;6.10;99.90
32470;DHT22;18925;48.356;10.864;2022-12-29T04:03:44;6.10;99.90
32470;DHT22;18925;48.356;10.864;2022-12-29T04:04:15;6.10;99.90
32470;DHT22;18925;48.356;10.864;2022-12-29T04:04:46;6.10;99.90
32470;DHT22;18925;48.356;10.864;2022-12-29T04:05:16;6.10;99.90
32470;DHT22;18925;48.356;10.864;2022-12-29T04:05:47;6.10;99.90
32470;DHT22;18925;48.356;10.864;2022-12-29T04:06:18;6.20;99.90
32470;DHT22;18925;48.356;10.864;2022-12-29T04:06:48;6.20;99.90
32470;DHT22;18925;48.356;10.864;2022-12-29T04:07:19;6.10;99.90
32470;DHT22;18925;48.356;10.864;2022-12-29T04:07:49;6.20;99.90
32470;DHT22;18925;48.356;10.864;2022-12-29T04:08:20;6.10;99.90
32470;DHT22;18925;48.356;10.864;2022-12-29T04:08:51;6.10;99.90
32470;DHT22;18925;48.356;10.864;2022-12-29T04:09:21;6.10;99.90
32470;DHT22;18925;48.356;10.864;2022-12-29T04:09:52;6.10;99.90
32470;DHT22;18925;48.356;10.864;2022-12-29T04:10:22;6.10;99.90
32470;DHT22;18925;48.356;10.864;2022-12-29T04:10:53;6.10;99.90
32470;DHT22;18925;48.356;10.864;2022-12-29T04:11:24;6.10;99.90
32470;DHT22;18925;48.356;10.864;2022-12-29T04:11:54;6.10;99.90
32470;DHT22;18925;48.356;10.864;2022-12-29T04:12:25;6.10;99.90
32470;DHT22;18925;48.356;10.864;2022-12-29T04:12:56;6.10;99.90
32470;DHT22;18925;48.356;10.864;2022-12-29T04:13:26;6.10;99.90
32470;DHT22;18925;48.356;10.864;2022-12-29T04:13:57;6.10;99.90
32470;DHT22;18925;48.356;10.864;2022-12-29T04:14:27;6.10;99.90